createdAt,value
2023-03-20T08:01:48.370Z,72.32
2023-03-20T08:04:19.500Z,73.12
2023-03-20T08:06:47.097Z,71.94
2023-03-20T08:09:14.695Z,72.67
2023-03-20T08:11:42.547Z,71.68
2023-03-20T08:14:09.963Z,72.96
2023-03-20T08:16:37.745Z,73.01
2023-03-20T08:19:06.272Z,71.68
2023-03-20T08:21:33.912Z,69.68
2023-03-20T08:24:01.492Z,69.29
2023-03-20T08:26:28.862Z,69.00
2023-03-20T08:28:56.266Z,69.45
2023-03-20T08:31:23.664Z,69.25
2023-03-20T08:33:52.063Z,69.02
2023-03-20T08:36:20.869Z,69.76
2023-03-20T08:38:50.287Z,69.17
2023-03-20T08:41:19.059Z,70.02
2023-03-20T08:43:47.699Z,70.12
2023-03-20T08:46:15.193Z,69.61
2023-03-20T08:48:42.632Z,69.41
2023-03-20T08:51:10.204Z,69.49
2023-03-20T08:53:37.557Z,68.71
2023-03-20T08:56:05.856Z,67.40
2023-03-20T08:58:33.345Z,68.24
2023-03-20T09:01:10.441Z,66.59
2023-03-20T09:03:38.133Z,67.52
2023-03-20T09:06:09.422Z,65.75
2023-03-20T09:08:36.909Z,66.76
2023-03-20T09:11:06.131Z,67.36
2023-03-20T09:13:33.921Z,65.89
2023-03-20T09:16:01.363Z,65.72
2023-03-20T09:18:28.869Z,63.95
2023-03-20T09:20:56.779Z,63.75
2023-03-20T09:23:24.234Z,62.33
2023-03-20T09:25:51.694Z,63.31
2023-03-20T09:28:19.634Z,62.02
2023-03-20T09:30:47.047Z,62.93
2023-03-20T09:33:15.005Z,64.76
2023-03-20T09:35:43.768Z,63.70
2023-03-20T09:38:12.385Z,64.18
2023-03-20T09:41:02.965Z,60.53
2023-03-20T09:44:20.984Z,60.57
2023-03-20T09:47:44.190Z,61.08
2023-03-20T09:50:54.942Z,60.80
2023-03-20T09:53:41.062Z,59.41
2023-03-20T09:56:25.344Z,60.97
2023-03-20T09:59:06.426Z,60.03
2023-03-20T10:01:55.265Z,58.87
2023-03-20T10:04:28.626Z,59.06
2023-03-20T10:06:56.971Z,58.03
2023-03-20T10:09:32.676Z,56.07
2023-03-20T10:12:49.677Z,56.03
2023-03-20T10:16:01.861Z,58.38
2023-03-20T10:18:32.803Z,57.35
2023-03-20T10:21:31.871Z,55.38
2023-03-20T10:24:15.833Z,56.64
2023-03-20T10:26:43.642Z,58.70
2023-03-20T10:29:53.003Z,56.72
2023-03-20T10:32:36.228Z,56.90
2023-03-20T10:36:04.724Z,58.98
2023-03-20T10:39:33.915Z,57.95
2023-03-20T10:42:10.422Z,55.28
2023-03-20T10:44:53.335Z,55.12
2023-03-20T10:47:25.080Z,54.87
2023-03-20T10:50:06.359Z,55.72
2023-03-20T10:52:40.554Z,56.40
2023-03-20T10:55:27.169Z,57.19
2023-03-20T10:58:26.642Z,57.14
2023-03-20T11:00:57.200Z,57.21
2023-03-20T11:03:29.631Z,57.24
2023-03-20T11:06:23.023Z,56.72
2023-03-20T11:08:53.333Z,57.39
2023-03-20T11:11:30.800Z,57.23
2023-03-20T11:14:09.333Z,57.11
2023-03-20T11:16:38.922Z,56.26
2023-03-20T11:19:11.657Z,56.85
2023-03-20T11:22:23.150Z,56.93
2023-03-20T11:25:02.578Z,58.12
2023-03-20T11:27:36.874Z,56.92
2023-03-20T11:30:08.399Z,56.53
2023-03-20T11:32:47.155Z,53.28
2023-03-20T11:35:26.335Z,53.07
2023-03-20T11:38:14.926Z,53.67
2023-03-20T11:40:42.321Z,51.93
2023-03-20T11:43:27.179Z,52.67
2023-03-20T11:46:01.430Z,51.57
2023-03-20T11:48:46.967Z,52.39
2023-03-20T11:51:21.763Z,52.41
2023-03-20T11:53:48.955Z,52.14
2023-03-20T11:56:26.636Z,51.75
2023-03-20T11:59:14.942Z,49.05
2023-03-20T12:01:53.579Z,49.38
2023-03-20T12:04:41.978Z,50.92
2023-03-20T12:07:35.103Z,47.66
2023-03-20T12:10:12.833Z,45.11
2023-03-20T12:12:54.841Z,45.97
2023-03-20T12:15:42.010Z,45.52
2023-03-20T12:19:01.641Z,42.04
2023-03-20T12:22:21.635Z,40.26
2023-03-20T12:25:52.804Z,40.76
2023-03-20T12:28:46.830Z,41.46
2023-03-20T12:32:03.850Z,39.97
2023-03-20T12:34:44.943Z,41.46
2023-03-20T12:37:13.685Z,40.84
2023-03-20T12:39:59.309Z,40.77
2023-03-20T12:43:02.700Z,42.93
2023-03-20T12:45:48.579Z,42.50
2023-03-20T12:48:38.141Z,42.97
2023-03-20T12:51:41.763Z,42.83
2023-03-20T12:55:21.160Z,44.32
2023-03-20T12:58:41.079Z,41.89
2023-03-20T13:01:27.639Z,44.33
2023-03-20T13:04:45.224Z,42.81
2023-03-20T13:07:25.951Z,42.58
2023-03-20T13:10:24.485Z,42.81
2023-03-20T13:13:13.026Z,43.31
2023-03-20T13:16:20.743Z,41.33
2023-03-20T13:19:49.248Z,41.65
2023-03-20T13:23:08.536Z,41.71
2023-03-20T13:25:53.683Z,40.85
2023-03-20T13:28:54.525Z,39.46
2023-03-20T13:32:02.224Z,38.02
2023-03-20T13:35:14.959Z,37.82
2023-03-20T13:38:07.338Z,36.48
2023-03-20T13:40:44.186Z,37.20
2023-03-20T13:43:49.893Z,35.44
2023-03-20T13:46:26.782Z,36.67
2023-03-20T13:48:58.785Z,36.27
2023-03-20T13:52:01.865Z,35.13
2023-03-20T13:55:11.482Z,34.56
2023-03-20T13:57:57.043Z,34.49
2023-03-20T14:00:46.404Z,34.03
2023-03-20T14:03:37.794Z,33.65
2023-03-20T14:06:47.405Z,33.03
2023-03-20T14:09:38.956Z,32.17
2023-03-20T14:12:13.458Z,33.61
2023-03-20T14:14:55.130Z,32.52
2023-03-20T14:17:30.876Z,34.86
2023-03-20T14:20:10.628Z,34.40
2023-03-20T14:22:44.573Z,36.40
2023-03-20T14:25:21.847Z,34.52
2023-03-20T14:28:27.256Z,36.37
2023-03-20T14:31:34.287Z,35.88
2023-03-20T14:34:12.172Z,35.07
2023-03-20T14:37:02.035Z,37.02
2023-03-20T14:40:15.622Z,35.98
2023-03-20T14:43:03.260Z,34.99
2023-03-20T14:46:03.709Z,36.03
2023-03-20T14:48:47.626Z,33.86
2023-03-20T14:51:41.416Z,33.91
2023-03-20T14:54:31.111Z,33.18
2023-03-20T14:57:26.559Z,32.93
2023-03-20T14:59:55.355Z,32.74
2023-03-20T15:02:36.412Z,32.00
2023-03-20T15:05:04.766Z,32.85
2023-03-20T15:07:39.559Z,32.57
2023-03-20T15:10:08.137Z,31.90
2023-03-20T15:12:37.583Z,31.96
2023-03-20T15:15:27.859Z,32.73
2023-03-20T15:17:55.316Z,30.66
2023-03-20T15:20:31.867Z,31.30
2023-03-20T15:23:02.554Z,31.97
2023-03-20T15:25:47.522Z,32.35
2023-03-20T15:28:26.100Z,33.53
2023-03-20T15:30:59.194Z,32.51
2023-03-20T15:33:45.787Z,34.06
2023-03-20T15:36:28.516Z,34.08
2023-03-20T15:39:27.246Z,32.39
2023-03-20T15:42:09.698Z,33.54
2023-03-20T15:44:41.747Z,34.06
2023-03-20T15:47:22.906Z,34.04
2023-03-20T15:50:00.719Z,34.53
2023-03-20T15:52:42.526Z,35.32
2023-03-20T15:55:20.008Z,35.35
2023-03-20T15:57:50.302Z,35.06
2023-03-20T16:00:34.209Z,36.27
2023-03-20T16:03:07.774Z,35.51
2023-03-20T16:05:36.184Z,35.73
2023-03-20T16:08:30.952Z,35.53
2023-03-20T16:11:19.084Z,35.60
2023-03-20T16:13:49.924Z,35.45
2023-03-20T16:16:24.613Z,35.10
2023-03-20T16:18:52.440Z,34.12
2023-03-20T16:21:32.136Z,35.34
2023-03-20T16:24:01.485Z,34.70
2023-03-20T16:26:29.217Z,35.53
2023-03-20T16:29:02.703Z,35.32
2023-03-20T16:31:35.228Z,36.56
2023-03-20T16:34:18.065Z,36.28
2023-03-20T16:36:56.454Z,37.56
2023-03-20T16:39:30.730Z,35.44
2023-03-20T16:42:23.995Z,36.53
2023-03-20T16:44:58.859Z,36.65
2023-03-20T16:47:38.416Z,36.82
2023-03-20T16:50:22.790Z,37.11
2023-03-20T16:52:58.680Z,38.97
2023-03-20T16:55:35.140Z,39.31
2023-03-20T16:58:07.352Z,38.37
2023-03-20T17:01:04.500Z,39.49
2023-03-20T17:03:49.476Z,39.96
2023-03-20T17:06:20.711Z,39.61
2023-03-20T17:09:13.181Z,39.94
2023-03-20T17:11:50.327Z,40.45
2023-03-20T17:14:20.792Z,40.63
2023-03-20T17:16:48.338Z,40.68
2023-03-20T17:19:19.352Z,41.97
2023-03-20T17:21:47.784Z,41.01
2023-03-20T17:24:17.417Z,40.97
2023-03-20T17:26:57.195Z,41.24
2023-03-20T17:29:24.621Z,41.94
2023-03-20T17:31:52.690Z,42.58
2023-03-20T17:34:20.110Z,42.47
2023-03-20T17:36:48.959Z,42.56
2023-03-20T17:39:21.097Z,41.56
2023-03-20T17:41:48.625Z,41.92
2023-03-20T17:44:16.075Z,43.34
2023-03-20T17:46:57.277Z,42.27
2023-03-20T17:49:27.521Z,42.53
2023-03-20T17:51:56.187Z,42.36
2023-03-20T17:54:23.687Z,43.51
2023-03-20T17:56:51.133Z,43.72
2023-03-20T17:59:18.493Z,43.64
2023-03-20T18:01:46.041Z,43.34
2023-03-20T18:04:13.530Z,43.55
2023-03-20T18:06:40.996Z,44.08
2023-03-20T18:09:13.338Z,43.67
2023-03-20T18:11:41.172Z,43.87
2023-03-20T18:14:08.688Z,44.05
2023-03-20T18:16:36.259Z,44.01
2023-03-20T18:19:03.820Z,43.68
2023-03-20T18:21:31.232Z,43.66
2023-03-20T18:23:58.651Z,44.22
2023-03-20T18:26:27.652Z,44.09
2023-03-20T18:28:56.233Z,43.86
2023-03-20T18:31:23.854Z,44.43
2023-03-20T18:33:53.405Z,44.48
2023-03-20T18:36:24.462Z,44.75
2023-03-20T18:38:52.581Z,44.27
2023-03-20T18:41:20.917Z,44.48
2023-03-20T18:43:48.674Z,43.75
2023-03-20T18:46:26.021Z,43.93
2023-03-20T18:48:54.446Z,44.64
2023-03-20T18:51:21.926Z,44.87
2023-03-20T18:53:49.500Z,45.27
2023-03-20T18:56:25.900Z,46.44
2023-03-20T18:58:54.174Z,47.52
2023-03-20T19:01:22.080Z,48.23
2023-03-20T19:03:50.088Z,48.72
2023-03-20T19:06:23.145Z,48.72
2023-03-20T19:08:52.439Z,48.47
2023-03-20T19:11:21.733Z,48.53
2023-03-20T19:13:53.624Z,49.13
2023-03-20T19:16:26.803Z,48.72
2023-03-20T19:18:58.993Z,48.55
2023-03-20T19:21:27.117Z,49.57
2023-03-20T19:24:03.557Z,50.19
2023-03-20T19:26:34.764Z,50.76
2023-03-20T19:29:09.195Z,50.63
2023-03-20T19:31:37.152Z,50.37
2023-03-20T19:34:05.391Z,51.10
2023-03-20T19:36:37.716Z,50.70
2023-03-20T19:39:12.522Z,50.40
2023-03-20T19:41:39.848Z,50.57
2023-03-20T19:44:07.395Z,50.64
2023-03-20T19:46:42.729Z,50.18
2023-03-20T19:49:30.194Z,49.71
2023-03-20T19:51:58.015Z,49.85
2023-03-20T19:54:25.567Z,49.28
2023-03-20T19:56:52.945Z,49.02
2023-03-20T19:59:21.159Z,48.79
2023-03-20T20:01:48.853Z,48.64
2023-03-20T20:04:16.470Z,48.26
2023-03-20T20:06:47.129Z,49.47
2023-03-20T20:09:15.711Z,49.34
2023-03-20T20:11:44.086Z,49.99
2023-03-20T20:14:14.593Z,50.17
2023-03-20T20:16:43.341Z,51.40
2023-03-20T20:19:11.751Z,50.90
2023-03-20T20:22:17.251Z,51.35
2023-03-20T20:24:27.469Z,51.81
2023-03-20T20:27:15.381Z,52.39
2023-03-20T20:29:50.942Z,52.61
2023-03-20T20:32:23.718Z,53.29
2023-03-20T20:38:27.035Z,53.95
2023-03-20T20:40:30.973Z,53.19
2023-03-20T20:43:01.659Z,52.52
2023-03-20T20:45:32.044Z,53.31
2023-03-20T20:48:01.939Z,53.28
2023-03-20T20:50:33.465Z,53.36
2023-03-20T20:53:00.884Z,54.05
2023-03-20T20:55:28.385Z,55.39
2023-03-20T20:57:56.149Z,56.42
2023-03-20T21:00:41.209Z,57.26
2023-03-20T21:03:13.346Z,56.68
2023-03-20T21:05:42.961Z,57.16
2023-03-20T21:08:12.043Z,57.26
2023-03-20T21:10:40.103Z,56.73
2023-03-20T21:13:08.654Z,55.85
2023-03-20T21:15:36.722Z,55.71
2023-03-20T21:18:04.888Z,55.65
2023-03-20T21:20:32.875Z,56.18
2023-03-20T21:23:00.935Z,56.10
2023-03-20T21:25:40.520Z,56.44
2023-03-20T21:28:26.518Z,56.19
2023-03-20T21:31:20.888Z,55.74
2023-03-20T21:33:41.816Z,55.85
2023-03-20T21:36:10.067Z,55.80
2023-03-20T21:39:05.899Z,56.56
2023-03-20T21:41:24.948Z,56.69
2023-03-20T21:43:52.274Z,56.71
2023-03-20T21:49:54.513Z,56.13
2023-03-20T21:55:21.635Z,55.99
2023-03-20T22:03:22.362Z,56.87
2023-03-20T22:06:50.592Z,56.48
2023-03-20T22:12:22.967Z,57.61
2023-03-20T22:15:11.991Z,57.46
2023-03-20T22:21:03.963Z,57.48
2023-03-20T22:26:28.520Z,57.80
2023-03-20T22:31:55.389Z,58.13
2023-03-20T22:40:26.357Z,60.34
2023-03-20T22:45:15.073Z,60.29
2023-03-20T22:47:42.831Z,60.14
2023-03-20T22:50:10.980Z,60.51
2023-03-20T22:52:48.546Z,60.71
2023-03-20T22:55:17.821Z,61.16
2023-03-20T22:57:59.957Z,60.16
2023-03-20T23:00:33.541Z,61.28
2023-03-20T23:03:33.371Z,60.40
2023-03-20T23:05:50.516Z,60.02
2023-03-20T23:08:18.241Z,60.15
2023-03-20T23:10:50.764Z,59.44
